X  Cerrar Datos meteorológicos de aviación METAR     EDDH Hamburg Helmut Schmidt Airport
Temperatura
0°C Temperatura
-3°C Punto de rocío
80% Humedad



Viento
6 MPH
10 KM/H
3 M/S
5 NUDO



60°
ENE
Condiciones actuales

Nubes mayormente dispersas Nubes mayormente dispersas
Presión 1017.92 (hPa) - 30.06 (inHg)
Visibilidad 6.2 (milla) - 10 (km)
Aeropuerto
Código de aeropuerto EDDH

localidad: Hamburg Helmut Schmidt Airport
Distancia: 11 (mi)

Metar:
EDDH 020320Z AUTO 06005KT 030V090 9999 SCT027 00/M03 Q1018 NOSIG

Hora: 02-04-2023 03:20 CEST